Terminal Aerodrome Forecast
Issued by NWS

Home | Current Version | Previous Version | Text Only | Print | Product List | Glossary On
Versions: 1 2 3 4 5 6 7 8 9 10 11 12 13
000
FTUS43 KICT 312331
TAFCNU
TAF
KCNU 312331Z 0100/0124 14011KT 5SM -RA SCT015 OVC030
     FM010200 15009KT 5SM -RA SCT009 OVC015
     FM010500 15009KT 5SM -RA SCT007 OVC009
     FM011200 24009KT 6SM -RA SCT007 OVC009
     FM011400 32016G23KT P6SM SCT009 OVC015
     FM011600 33020G28KT P6SM OVC025=

USA.gov is the U.S. government's official web portal to all federal, state and local government web resources and services.